createdAt,value
2022-10-19T00:02:11.462Z,14.86
2022-10-19T00:04:38.158Z,14.79
2022-10-19T00:07:04.692Z,14.73
2022-10-19T00:09:31.332Z,14.71
2022-10-19T00:11:57.879Z,14.59
2022-10-19T00:14:24.811Z,14.61
2022-10-19T00:16:52.915Z,14.66
2022-10-19T00:19:23.156Z,14.65
2022-10-19T00:24:17.785Z,14.70
2022-10-19T00:26:44.681Z,14.58
2022-10-19T00:29:13.537Z,14.53
2022-10-19T00:31:41.200Z,14.59
2022-10-19T00:34:07.946Z,14.54
2022-10-19T00:36:38.055Z,14.52
2022-10-19T00:39:07.762Z,14.52
2022-10-19T00:41:36.398Z,14.45
2022-10-19T00:44:11.939Z,14.45
2022-10-19T00:46:39.554Z,14.47
2022-10-19T00:49:20.427Z,14.41
2022-10-19T00:51:54.659Z,14.43
2022-10-19T00:54:22.235Z,14.45
2022-10-19T00:56:52.232Z,14.41
2022-10-19T00:59:21.636Z,14.41
2022-10-19T01:01:49.879Z,14.35
2022-10-19T01:04:16.818Z,14.37
2022-10-19T01:06:43.548Z,14.36
2022-10-19T01:09:10.264Z,14.35
2022-10-19T01:11:39.915Z,14.39
2022-10-19T01:14:21.427Z,14.33
2022-10-19T01:17:15.751Z,14.27
2022-10-19T01:19:57.450Z,14.27
2022-10-19T01:22:26.705Z,14.29
2022-10-19T01:25:21.239Z,14.24
2022-10-19T01:27:59.664Z,14.23
2022-10-19T01:30:41.431Z,14.25
2022-10-19T01:33:35.372Z,14.26
2022-10-19T01:36:10.995Z,14.23
2022-10-19T01:38:59.099Z,14.22
2022-10-19T01:41:38.825Z,14.26
2022-10-19T01:44:16.847Z,14.18
2022-10-19T01:46:57.033Z,14.11
2022-10-19T01:49:31.610Z,14.12
2022-10-19T01:52:03.281Z,14.14
2022-10-19T01:54:36.256Z,14.07
2022-10-19T01:57:07.210Z,14.08
2022-10-19T01:59:35.254Z,14.07
2022-10-19T02:02:07.016Z,14.08
2022-10-19T02:04:36.665Z,14.04
2022-10-19T02:07:06.515Z,14.02
2022-10-19T02:09:33.198Z,14.04
2022-10-19T02:12:04.854Z,14.00
2022-10-19T02:14:37.438Z,14.06
2022-10-19T02:17:14.212Z,13.98
2022-10-19T02:19:41.563Z,13.96
2022-10-19T02:22:08.628Z,13.96
2022-10-19T02:24:35.266Z,13.87
2022-10-19T02:27:05.432Z,13.91
2022-10-19T02:29:37.520Z,13.90
2022-10-19T02:32:04.965Z,13.91
2022-10-19T02:34:32.623Z,13.82
2022-10-19T02:36:59.540Z,13.79
2022-10-19T02:39:26.276Z,13.82
2022-10-19T02:42:12.114Z,13.76
2022-10-19T02:44:58.448Z,13.80
2022-10-19T02:47:35.454Z,13.80
2022-10-19T02:50:06.802Z,13.83
2022-10-19T02:52:33.437Z,13.81
2022-10-19T02:55:00.013Z,13.76
2022-10-19T02:57:26.634Z,13.71
2022-10-19T02:59:53.430Z,13.75
2022-10-19T03:02:21.261Z,13.75
2022-10-19T03:07:21.037Z,13.76
2022-10-19T03:09:47.682Z,13.76
2022-10-19T03:12:14.886Z,13.67
2022-10-19T03:14:41.617Z,13.66
2022-10-19T03:17:08.560Z,13.60
2022-10-19T03:19:36.112Z,13.58
2022-10-19T03:22:03.239Z,13.50
2022-10-19T03:24:30.740Z,13.56
2022-10-19T03:26:57.492Z,13.56
2022-10-19T03:29:24.234Z,13.48
2022-10-19T03:31:51.125Z,13.51
2022-10-19T03:34:17.752Z,13.58
2022-10-19T03:36:44.695Z,13.51
2022-10-19T03:39:14.447Z,13.52
2022-10-19T03:41:41.262Z,13.54
2022-10-19T03:44:09.324Z,13.43
2022-10-19T03:46:36.689Z,13.36
2022-10-19T03:49:04.541Z,13.33
2022-10-19T03:51:32.714Z,13.31
2022-10-19T03:54:02.298Z,13.38
2022-10-19T03:56:30.531Z,13.34
2022-10-19T03:58:59.638Z,13.38
2022-10-19T04:01:30.996Z,13.34
2022-10-19T04:03:59.874Z,13.38
2022-10-19T04:06:31.284Z,13.29
2022-10-19T04:08:58.837Z,13.33
2022-10-19T04:11:30.253Z,13.33
2022-10-19T04:13:58.498Z,13.28
2022-10-19T04:16:27.309Z,13.30
2022-10-19T04:18:54.165Z,13.27
2022-10-19T04:21:20.665Z,13.22
2022-10-19T04:23:47.517Z,13.19
2022-10-19T04:26:14.134Z,13.24
2022-10-19T04:28:40.839Z,13.28
2022-10-19T04:31:08.289Z,13.29
2022-10-19T04:33:34.980Z,13.21
2022-10-19T04:36:07.235Z,13.14
2022-10-19T04:38:34.719Z,13.15
2022-10-19T04:41:06.569Z,13.18
2022-10-19T04:43:33.893Z,13.16
2022-10-19T04:46:10.742Z,13.13
2022-10-19T04:48:38.602Z,13.15
2022-10-19T04:51:05.739Z,13.10
2022-10-19T04:53:33.265Z,13.09
2022-10-19T04:56:00.356Z,13.05
2022-10-19T04:58:27.382Z,13.11
2022-10-19T05:00:54.055Z,13.12
2022-10-19T05:03:20.830Z,13.09
2022-10-19T05:05:47.430Z,13.02
2022-10-19T05:08:14.364Z,13.04
2022-10-19T05:10:44.215Z,13.01
2022-10-19T05:13:13.751Z,12.99
2022-10-19T05:15:40.643Z,12.88
2022-10-19T05:18:07.494Z,12.90
2022-10-19T05:20:34.160Z,12.91
2022-10-19T05:23:06.151Z,12.91
2022-10-19T05:25:34.246Z,12.88
2022-10-19T05:28:00.785Z,12.92
2022-10-19T05:30:27.495Z,12.97
2022-10-19T05:32:54.076Z,12.90
2022-10-19T05:35:22.626Z,12.80
2022-10-19T05:37:54.385Z,12.91
2022-10-19T05:40:21.128Z,12.92
2022-10-19T05:42:47.678Z,12.96
2022-10-19T05:45:14.455Z,12.91
2022-10-19T05:47:41.006Z,12.87
2022-10-19T05:50:08.072Z,12.88
2022-10-19T05:52:34.726Z,12.90
2022-10-19T05:55:01.454Z,12.85
2022-10-19T05:57:28.034Z,12.84
2022-10-19T05:59:56.834Z,12.85
2022-10-19T06:02:23.682Z,12.80
2022-10-19T06:04:50.323Z,12.82
2022-10-19T06:07:17.082Z,12.80
2022-10-19T06:09:43.941Z,12.86
2022-10-19T06:12:10.554Z,12.85
2022-10-19T06:14:37.277Z,12.78
2022-10-19T06:17:03.992Z,12.84
2022-10-19T06:19:30.706Z,12.79
2022-10-19T06:21:58.030Z,12.80
2022-10-19T06:24:24.717Z,12.76
2022-10-19T06:26:51.403Z,12.81
2022-10-19T06:29:19.001Z,12.81
2022-10-19T06:31:48.682Z,12.86
2022-10-19T06:34:15.626Z,12.79
2022-10-19T06:36:42.353Z,12.86
2022-10-19T06:39:09.549Z,12.87
2022-10-19T06:41:36.311Z,12.85
2022-10-19T06:44:18.117Z,12.88
2022-10-19T06:46:44.738Z,12.86
2022-10-19T06:49:13.093Z,12.92
2022-10-19T06:51:40.730Z,12.90
2022-10-19T06:54:07.953Z,12.94
2022-10-19T06:56:35.038Z,12.97
2022-10-19T06:59:02.350Z,13.06
2022-10-19T07:01:29.179Z,13.09
2022-10-19T07:03:56.010Z,13.13
2022-10-19T07:06:23.746Z,13.21
2022-10-19T07:08:50.541Z,13.27
2022-10-19T07:11:19.755Z,13.31
2022-10-19T07:13:46.558Z,13.35
2022-10-19T07:16:19.810Z,13.40
2022-10-19T07:18:48.659Z,13.47
2022-10-19T07:21:16.763Z,13.55
2022-10-19T07:23:47.394Z,13.60
2022-10-19T07:26:17.849Z,13.60
2022-10-19T07:28:47.157Z,13.60
2022-10-19T07:31:17.951Z,13.62
2022-10-19T07:33:45.046Z,13.66
2022-10-19T07:36:13.743Z,13.70
2022-10-19T07:38:40.791Z,13.74
2022-10-19T07:41:12.694Z,13.75
2022-10-19T07:43:40.947Z,13.76
2022-10-19T07:46:29.346Z,13.79
2022-10-19T07:48:56.240Z,13.84
2022-10-19T07:51:22.980Z,13.86
2022-10-19T07:53:49.895Z,13.90
2022-10-19T07:56:25.045Z,13.92
2022-10-19T07:58:53.841Z,13.91
2022-10-19T08:01:29.337Z,13.92
2022-10-19T08:04:48.586Z,13.98
2022-10-19T08:06:43.825Z,14.02
2022-10-19T08:09:13.400Z,14.01
2022-10-19T08:11:49.686Z,14.07
2022-10-19T08:14:16.547Z,14.14
2022-10-19T08:16:44.624Z,14.18
2022-10-19T08:19:13.706Z,14.20
2022-10-19T08:21:43.939Z,14.23
2022-10-19T08:24:13.063Z,14.28
2022-10-19T08:26:40.917Z,14.36
2022-10-19T08:29:12.345Z,14.38
2022-10-19T08:31:40.335Z,14.41
2022-10-19T08:34:07.154Z,14.44
2022-10-19T08:36:35.938Z,14.52
2022-10-19T08:39:05.305Z,14.63
2022-10-19T08:41:41.418Z,14.68
2022-10-19T08:44:33.344Z,14.67
2022-10-19T08:47:27.087Z,14.75
2022-10-19T08:49:54.091Z,14.77
2022-10-19T08:52:35.977Z,14.80
2022-10-19T08:55:13.992Z,14.83
2022-10-19T08:58:20.586Z,14.83
2022-10-19T09:01:16.648Z,14.91
2022-10-19T09:04:01.821Z,14.98
2022-10-19T09:06:49.153Z,15.06
2022-10-19T09:09:18.644Z,15.11
2022-10-19T09:11:49.551Z,15.25
2022-10-19T09:14:30.452Z,15.36
2022-10-19T09:17:04.201Z,15.45
2022-10-19T09:19:32.089Z,15.47
2022-10-19T09:22:04.663Z,15.57
2022-10-19T09:24:48.283Z,15.58
2022-10-19T09:27:22.153Z,15.56
2022-10-19T09:29:57.484Z,15.53
2022-10-19T09:32:39.779Z,15.54
2022-10-19T09:35:25.066Z,15.66
2022-10-19T09:37:52.489Z,15.74
2022-10-19T09:40:22.930Z,15.77
2022-10-19T09:42:57.671Z,15.82
2022-10-19T09:45:40.595Z,15.93
2022-10-19T09:48:19.925Z,15.95
2022-10-19T09:50:53.939Z,16.04
2022-10-19T09:53:22.338Z,16.07
2022-10-19T09:55:58.952Z,16.17
2022-10-19T09:58:32.070Z,16.26
2022-10-19T10:01:01.889Z,16.36
2022-10-19T10:03:40.425Z,16.43
2022-10-19T10:06:10.442Z,16.45
2022-10-19T10:08:45.020Z,16.46
2022-10-19T10:11:37.827Z,16.54
2022-10-19T10:14:16.341Z,16.63
2022-10-19T10:16:43.590Z,16.65
2022-10-19T10:19:14.262Z,16.69
2022-10-19T10:21:49.601Z,16.76
2022-10-19T10:24:19.202Z,16.76
2022-10-19T10:26:51.876Z,16.74
2022-10-19T10:29:22.325Z,16.90
2022-10-19T10:31:55.898Z,17.04
2022-10-19T10:37:22.063Z,17.22
2022-10-19T10:39:53.303Z,17.19
2022-10-19T10:42:27.442Z,17.18
2022-10-19T10:44:56.492Z,17.08
2022-10-19T10:47:23.744Z,17.07
2022-10-19T10:49:57.597Z,17.10
2022-10-19T10:52:27.718Z,17.17
2022-10-19T10:55:09.969Z,17.18
2022-10-19T10:57:45.339Z,17.25
2022-10-19T11:00:13.274Z,17.26
2022-10-19T11:02:53.230Z,17.49
2022-10-19T11:05:29.112Z,17.57
2022-10-19T11:08:08.068Z,17.61
2022-10-19T11:10:39.595Z,17.70
2022-10-19T11:13:18.511Z,17.81
2022-10-19T11:16:00.940Z,17.81
2022-10-19T11:18:34.267Z,17.88
2022-10-19T11:21:07.962Z,17.83
2022-10-19T11:23:48.126Z,17.98
2022-10-19T11:26:53.966Z,18.08
2022-10-19T11:29:29.582Z,18.08
2022-10-19T11:31:57.570Z,18.19
2022-10-19T11:34:45.678Z,18.29
2022-10-19T11:37:27.868Z,18.36
2022-10-19T11:39:54.509Z,18.46
2022-10-19T11:45:27.797Z,18.60
2022-10-19T11:48:06.560Z,18.67
2022-10-19T11:50:58.586Z,18.67
2022-10-19T11:53:49.603Z,18.70
2022-10-19T11:57:02.580Z,18.72
2022-10-19T11:59:51.022Z,18.75
2022-10-19T12:02:39.052Z,18.83
2022-10-19T12:05:29.798Z,18.81
2022-10-19T12:08:08.777Z,18.96
2022-10-19T12:10:48.148Z,19.06
2022-10-19T12:13:30.838Z,18.92
2022-10-19T12:15:59.586Z,18.99
2022-10-19T12:18:41.214Z,19.15
2022-10-19T12:21:26.533Z,19.12
2022-10-19T12:23:54.661Z,19.20
2022-10-19T12:26:22.962Z,19.28
2022-10-19T12:28:58.926Z,19.25
2022-10-19T12:31:27.330Z,19.48
2022-10-19T12:34:06.082Z,19.47
2022-10-19T12:36:58.411Z,19.38
2022-10-19T12:39:29.755Z,19.32
2022-10-19T12:42:27.677Z,19.34
2022-10-19T12:45:23.841Z,19.32
2022-10-19T12:48:08.706Z,19.31
2022-10-19T12:50:50.880Z,19.54
2022-10-19T12:53:33.021Z,19.69
2022-10-19T12:56:04.416Z,19.69
2022-10-19T12:58:47.582Z,19.83
2022-10-19T13:01:35.107Z,19.82
2022-10-19T13:04:10.404Z,19.78
2022-10-19T13:06:42.119Z,19.80
2022-10-19T13:09:22.134Z,19.84
2022-10-19T13:12:16.497Z,19.94
2022-10-19T13:14:58.870Z,19.90
2022-10-19T13:17:36.610Z,19.88
2022-10-19T13:20:15.349Z,20.00
2022-10-19T13:22:46.937Z,19.99
2022-10-19T13:25:20.878Z,20.05
2022-10-19T13:27:52.715Z,20.27
2022-10-19T13:30:46.991Z,20.30
2022-10-19T13:33:24.782Z,20.40
2022-10-19T13:36:00.957Z,20.47
2022-10-19T13:38:38.037Z,20.45
2022-10-19T13:41:25.895Z,20.50
2022-10-19T13:44:12.267Z,20.69
2022-10-19T13:47:10.254Z,20.73
2022-10-19T13:49:40.221Z,20.81
2022-10-19T13:52:24.302Z,20.80
2022-10-19T13:55:12.689Z,20.79
2022-10-19T13:57:54.172Z,20.75
2022-10-19T14:00:24.117Z,20.72
2022-10-19T14:03:11.804Z,20.76
2022-10-19T14:06:06.397Z,20.84
2022-10-19T14:08:41.966Z,20.88
2022-10-19T14:11:21.764Z,20.95
2022-10-19T14:14:13.575Z,21.09
2022-10-19T14:16:59.804Z,21.14
2022-10-19T14:19:32.910Z,21.17
2022-10-19T14:22:01.772Z,21.19
2022-10-19T14:24:35.318Z,21.21
2022-10-19T14:27:05.183Z,21.19
2022-10-19T14:29:46.469Z,21.21
2022-10-19T14:32:13.666Z,21.26
2022-10-19T14:34:42.117Z,21.30
2022-10-19T14:37:21.064Z,21.22
2022-10-19T14:40:06.349Z,21.24
2022-10-19T14:42:42.048Z,21.28
2022-10-19T14:45:18.267Z,21.28
2022-10-19T14:47:57.532Z,21.30
2022-10-19T14:50:46.920Z,21.33
2022-10-19T14:53:50.674Z,21.37
2022-10-19T14:56:29.635Z,21.31
2022-10-19T14:59:47.808Z,21.33
2022-10-19T15:02:26.491Z,21.35
2022-10-19T15:04:56.304Z,21.30
2022-10-19T15:07:34.967Z,21.25
2022-10-19T15:10:05.339Z,21.17
2022-10-19T15:12:39.021Z,21.08
2022-10-19T15:15:33.635Z,20.95
2022-10-19T15:18:00.472Z,20.86
2022-10-19T15:20:44.254Z,20.65
2022-10-19T15:23:41.685Z,20.59
2022-10-19T15:26:26.707Z,20.49
2022-10-19T15:28:55.391Z,20.37
2022-10-19T15:31:27.806Z,20.09
2022-10-19T15:33:57.461Z,20.06
2022-10-19T15:36:25.539Z,19.92
2022-10-19T15:39:06.267Z,19.79
2022-10-19T15:41:44.896Z,19.60
2022-10-19T15:44:42.470Z,19.49
2022-10-19T15:47:15.235Z,19.34
2022-10-19T15:49:41.878Z,19.25
2022-10-19T15:52:16.101Z,19.21
2022-10-19T15:54:42.968Z,19.14
2022-10-19T15:57:39.731Z,19.04
2022-10-19T16:00:16.054Z,18.99
2022-10-19T16:02:42.977Z,18.91
2022-10-19T16:05:10.017Z,18.88
2022-10-19T16:07:40.089Z,18.78
2022-10-19T16:10:08.198Z,18.66
2022-10-19T16:12:34.911Z,18.60
2022-10-19T16:15:01.466Z,18.56
2022-10-19T16:17:28.197Z,18.41
2022-10-19T16:19:54.748Z,18.36
2022-10-19T16:22:21.437Z,18.32
2022-10-19T16:24:48.118Z,18.26
2022-10-19T16:27:16.123Z,18.27
2022-10-19T16:29:44.306Z,18.23
2022-10-19T16:32:11.095Z,18.24
2022-10-19T16:34:38.102Z,18.12
2022-10-19T16:37:06.908Z,18.04
2022-10-19T16:39:34.450Z,18.04
2022-10-19T16:42:01.334Z,18.01
2022-10-19T16:44:27.912Z,18.01
2022-10-19T16:46:56.625Z,18.05
2022-10-19T16:49:23.561Z,17.99
2022-10-19T16:51:53.231Z,17.99
2022-10-19T16:54:23.976Z,17.94
2022-10-19T16:56:50.536Z,17.92
2022-10-19T16:59:18.446Z,17.86
2022-10-19T17:01:46.532Z,17.78
2022-10-19T17:04:15.300Z,17.76
2022-10-19T17:06:42.133Z,17.73
2022-10-19T17:11:55.817Z,17.66
2022-10-19T17:14:22.466Z,17.62
2022-10-19T17:16:49.098Z,17.55
2022-10-19T17:19:15.716Z,17.53
2022-10-19T17:21:42.705Z,17.54
2022-10-19T17:24:20.196Z,17.59
2022-10-19T17:26:49.478Z,17.53
2022-10-19T17:29:16.217Z,17.58
2022-10-19T17:31:43.550Z,17.54
2022-10-19T17:34:10.716Z,17.49
2022-10-19T17:39:17.752Z,17.39
2022-10-19T17:41:48.974Z,17.33
2022-10-19T17:44:16.910Z,17.32
2022-10-19T17:46:44.273Z,17.28
2022-10-19T17:49:11.452Z,17.23
2022-10-19T17:51:38.786Z,17.15
2022-10-19T17:54:08.289Z,17.17
2022-10-19T17:56:36.626Z,17.17
2022-10-19T17:59:04.286Z,17.20
2022-10-19T18:01:31.528Z,17.20
2022-10-19T18:03:58.078Z,17.18
2022-10-19T18:06:27.498Z,17.18
2022-10-19T18:08:56.482Z,17.15
2022-10-19T18:11:25.154Z,17.10
2022-10-19T18:13:54.045Z,17.09
2022-10-19T18:16:23.738Z,17.04
2022-10-19T18:18:53.414Z,16.99
2022-10-19T18:21:24.794Z,16.97
2022-10-19T18:23:53.374Z,16.96
2022-10-19T18:26:25.779Z,17.03
2022-10-19T18:28:53.254Z,17.07
2022-10-19T18:31:21.922Z,17.00
2022-10-19T18:33:55.201Z,16.91
2022-10-19T18:36:21.856Z,16.92
2022-10-19T18:38:52.747Z,16.95
2022-10-19T18:41:20.082Z,16.94
2022-10-19T18:43:55.367Z,16.86
2022-10-19T18:46:23.589Z,16.84
2022-10-19T18:48:50.197Z,16.89
2022-10-19T18:51:18.927Z,16.83
2022-10-19T18:53:46.255Z,16.81
2022-10-19T18:56:15.658Z,16.80
2022-10-19T18:58:42.659Z,16.74
2022-10-19T19:01:22.940Z,16.73
2022-10-19T19:03:52.157Z,16.73
2022-10-19T19:06:22.110Z,16.66
2022-10-19T19:08:49.269Z,16.67
2022-10-19T19:11:32.953Z,16.62
2022-10-19T19:14:15.261Z,16.62
2022-10-19T19:16:42.987Z,16.61
2022-10-19T19:19:12.561Z,16.55
2022-10-19T19:21:41.867Z,16.58
2022-10-19T19:24:08.514Z,16.58
2022-10-19T19:26:39.633Z,16.61
2022-10-19T19:29:06.424Z,16.58
2022-10-19T19:31:33.362Z,16.50
2022-10-19T19:34:01.100Z,16.49
2022-10-19T19:36:28.500Z,16.54
2022-10-19T19:38:56.979Z,16.55
2022-10-19T19:41:23.733Z,16.50
2022-10-19T19:43:50.472Z,16.41
2022-10-19T19:46:19.307Z,16.43
2022-10-19T19:48:47.965Z,16.39
2022-10-19T19:51:21.018Z,16.33
2022-10-19T19:53:48.757Z,16.33
2022-10-19T19:56:16.851Z,16.35
2022-10-19T19:58:45.252Z,16.38
2022-10-19T20:01:18.253Z,16.31
2022-10-19T20:03:46.040Z,16.26
2022-10-19T20:06:14.702Z,16.26
2022-10-19T20:08:41.432Z,16.28
2022-10-19T20:11:16.141Z,16.26
2022-10-19T20:13:44.840Z,16.26
2022-10-19T20:16:14.975Z,16.27
2022-10-19T20:18:45.136Z,16.33
2022-10-19T20:21:12.226Z,16.26
2022-10-19T20:23:38.993Z,16.24
2022-10-19T20:26:06.285Z,16.23
2022-10-19T20:28:33.258Z,16.16
2022-10-19T20:31:08.000Z,16.18
2022-10-19T20:33:36.451Z,16.18
2022-10-19T20:36:08.100Z,16.16
2022-10-19T20:38:35.944Z,16.22
2022-10-19T20:41:08.416Z,16.21
2022-10-19T20:43:36.887Z,16.22
2022-10-19T20:46:11.832Z,16.20
2022-10-19T20:48:39.635Z,16.12
2022-10-19T20:51:09.054Z,16.10
2022-10-19T20:53:35.793Z,16.01
2022-10-19T20:56:06.987Z,15.96
2022-10-19T20:58:34.684Z,15.96
2022-10-19T21:01:19.426Z,15.92
2022-10-19T21:03:48.766Z,15.92
2022-10-19T21:06:15.963Z,15.93
2022-10-19T21:08:42.834Z,15.97
2022-10-19T21:11:16.989Z,16.01
2022-10-19T21:13:44.149Z,15.95
2022-10-19T21:16:13.609Z,15.89
2022-10-19T21:18:40.723Z,15.87
2022-10-19T21:21:16.001Z,15.87
2022-10-19T21:23:44.393Z,15.82
2022-10-19T21:26:11.088Z,15.83
2022-10-19T21:28:38.449Z,15.80
2022-10-19T21:31:09.247Z,15.73
2022-10-19T21:33:36.408Z,15.73
2022-10-19T21:36:05.451Z,15.77
2022-10-19T21:38:32.248Z,15.81
2022-10-19T21:41:07.874Z,15.75
2022-10-19T21:43:35.143Z,15.70
2022-10-19T21:46:03.566Z,15.67
2022-10-19T21:48:31.074Z,15.77
2022-10-19T21:50:57.681Z,15.74
2022-10-19T21:53:24.407Z,15.70
2022-10-19T21:55:52.713Z,15.65
2022-10-19T21:58:23.177Z,15.65
2022-10-19T22:00:49.810Z,15.64
2022-10-19T22:03:18.204Z,15.65
2022-10-19T22:05:51.726Z,15.60
2022-10-19T22:08:18.390Z,15.61
2022-10-19T22:10:44.942Z,15.59
2022-10-19T22:13:11.559Z,15.55
2022-10-19T22:15:39.032Z,15.54
2022-10-19T22:18:05.792Z,15.47
2022-10-19T22:20:36.105Z,15.43
2022-10-19T22:23:04.795Z,15.46
2022-10-19T22:25:32.386Z,15.53
2022-10-19T22:27:59.069Z,15.50
2022-10-19T22:30:25.887Z,15.51
2022-10-19T22:32:52.701Z,15.54
2022-10-19T22:35:19.397Z,15.47
2022-10-19T22:37:46.156Z,15.41
2022-10-19T22:40:13.254Z,15.40
2022-10-19T22:42:39.854Z,15.52
2022-10-19T22:45:06.993Z,15.51
2022-10-19T22:47:33.628Z,15.42
2022-10-19T22:50:00.226Z,15.33
2022-10-19T22:52:26.901Z,15.29
2022-10-19T22:54:53.668Z,15.33
2022-10-19T22:57:20.340Z,15.30
2022-10-19T22:59:46.958Z,15.25
2022-10-19T23:02:13.593Z,15.20
2022-10-19T23:04:40.141Z,15.22
2022-10-19T23:07:06.858Z,15.25
2022-10-19T23:09:33.446Z,15.23
2022-10-19T23:12:00.114Z,15.26
2022-10-19T23:14:26.722Z,15.25
2022-10-19T23:16:53.388Z,15.23
2022-10-19T23:19:20.097Z,15.24
2022-10-19T23:21:46.759Z,15.22
2022-10-19T23:24:13.308Z,15.10
2022-10-19T23:26:39.995Z,15.10
2022-10-19T23:29:06.593Z,15.14
2022-10-19T23:31:33.707Z,15.15
2022-10-19T23:34:00.271Z,15.08
2022-10-19T23:36:28.596Z,15.02
2022-10-19T23:38:57.301Z,14.95
2022-10-19T23:41:24.089Z,14.93
2022-10-19T23:43:50.923Z,14.95
2022-10-19T23:46:17.577Z,14.92
2022-10-19T23:48:44.188Z,14.95
2022-10-19T23:51:16.578Z,14.95
2022-10-19T23:53:44.906Z,14.96
2022-10-19T23:56:20.746Z,14.86
2022-10-19T23:58:47.753Z,14.96
